createdAt,value
2018-07-26T00:00:01.489Z,101478.23
2018-07-26T00:02:30.247Z,101471.11
2018-07-26T00:04:59.315Z,101469.50
2018-07-26T00:07:28.107Z,101474.16
2018-07-26T00:09:56.830Z,101476.55
2018-07-26T00:12:25.881Z,101476.92
2018-07-26T00:14:54.703Z,101477.71
2018-07-26T00:17:23.746Z,101483.98
2018-07-26T00:19:53.102Z,101486.37
2018-07-26T00:22:21.800Z,101483.05
2018-07-26T00:24:53.717Z,101482.22
2018-07-26T00:27:22.447Z,101477.94
2018-07-26T00:29:51.539Z,101484.05
2018-07-26T00:32:20.307Z,101486.66
2018-07-26T00:34:49.105Z,101484.47
2018-07-26T00:37:18.161Z,101489.84
2018-07-26T00:39:47.704Z,101484.32
2018-07-26T00:42:16.892Z,101483.09
2018-07-26T00:44:45.987Z,101482.59
2018-07-26T00:47:15.348Z,101486.09
2018-07-26T00:49:44.721Z,101480.50
2018-07-26T00:52:13.933Z,101480.57
2018-07-26T00:54:42.704Z,101479.14
2018-07-26T00:57:12.279Z,101477.46
2018-07-26T00:59:41.265Z,101481.70
2018-07-26T01:02:10.026Z,101484.60
2018-07-26T01:04:39.452Z,101484.37
2018-07-26T01:07:08.276Z,101484.97
2018-07-26T01:09:37.931Z,101484.25
2018-07-26T01:12:06.875Z,101474.37
2018-07-26T01:14:36.744Z,101473.36
2018-07-26T01:17:06.983Z,101471.98
2018-07-26T01:19:36.943Z,101468.84
2018-07-26T01:22:07.633Z,101470.78
2018-07-26T01:24:36.682Z,101466.09
2018-07-26T01:27:05.465Z,101470.78
2018-07-26T01:29:34.466Z,101463.84
2018-07-26T01:32:03.823Z,101461.59
2018-07-26T01:34:32.590Z,101463.94
2018-07-26T01:37:01.627Z,101458.78
2018-07-26T01:39:30.343Z,101465.26
2018-07-26T01:42:00.055Z,101461.83
2018-07-26T01:44:29.311Z,101465.69
2018-07-26T01:46:58.722Z,101468.95
2018-07-26T01:49:27.665Z,101460.67
2018-07-26T01:51:56.393Z,101457.69
2018-07-26T01:54:25.466Z,101459.07
2018-07-26T01:56:54.467Z,101454.94
2018-07-26T01:59:23.881Z,101451.08
2018-07-26T02:01:52.874Z,101457.97
2018-07-26T02:04:22.288Z,101451.45
2018-07-26T02:06:51.675Z,101451.59
2018-07-26T02:09:20.749Z,101446.67
2018-07-26T02:11:49.757Z,101448.61
2018-07-26T02:14:24.165Z,101441.85
2018-07-26T02:16:53.139Z,101441.06
2018-07-26T02:19:22.191Z,101445.56
2018-07-26T02:21:50.954Z,101445.80
2018-07-26T02:24:20.060Z,101445.62
2018-07-26T02:26:49.118Z,101439.09
2018-07-26T02:29:18.206Z,101441.06
2018-07-26T02:31:47.253Z,101437.44
2018-07-26T02:34:16.753Z,101439.38
2018-07-26T02:36:45.949Z,101442.58
2018-07-26T02:39:14.699Z,101444.97
2018-07-26T02:41:43.476Z,101439.69
2018-07-26T02:44:12.788Z,101447.31
2018-07-26T02:46:41.772Z,101450.63
2018-07-26T02:49:10.503Z,101440.19
2018-07-26T02:51:40.025Z,101448.83
2018-07-26T02:54:09.055Z,101448.83
2018-07-26T02:56:37.802Z,101450.77
2018-07-26T02:59:06.564Z,101451.50
2018-07-26T03:01:35.683Z,101455.18
2018-07-26T03:04:04.832Z,101445.70
2018-07-26T03:06:33.789Z,101447.42
2018-07-26T03:09:02.878Z,101446.99
2018-07-26T03:11:31.986Z,101448.00
2018-07-26T03:14:01.280Z,101449.02
2018-07-26T03:16:30.360Z,101453.38
2018-07-26T03:18:59.108Z,101449.61
2018-07-26T03:21:28.112Z,101440.24
2018-07-26T03:23:56.842Z,101445.89
2018-07-26T03:26:26.296Z,101440.52
2018-07-26T03:28:55.316Z,101439.14
2018-07-26T03:31:24.397Z,101427.89
2018-07-26T03:33:53.148Z,101431.46
2018-07-26T03:36:22.151Z,101433.40
2018-07-26T03:38:51.290Z,101438.35
2018-07-26T03:41:20.056Z,101434.78
2018-07-26T03:43:49.073Z,101427.10
2018-07-26T03:46:17.857Z,101425.72
2018-07-26T03:48:46.850Z,101433.17
2018-07-26T03:51:16.250Z,101423.11
2018-07-26T03:53:45.564Z,101429.20
2018-07-26T03:56:14.326Z,101431.52
2018-07-26T03:58:43.322Z,101424.76
2018-07-26T04:01:12.314Z,101427.42
2018-07-26T04:03:41.902Z,101430.77
2018-07-26T04:06:11.553Z,101429.16
2018-07-26T04:08:40.387Z,101435.41
2018-07-26T04:11:09.422Z,101432.05
2018-07-26T04:13:38.745Z,101432.28
2018-07-26T04:16:07.853Z,101432.73
2018-07-26T04:18:37.271Z,101434.77
2018-07-26T04:21:07.632Z,101429.91
2018-07-26T04:26:04.587Z,101436.75
2018-07-26T04:28:33.364Z,101429.13
2018-07-26T04:31:02.099Z,101424.85
2018-07-26T04:33:30.836Z,101436.66
2018-07-26T04:35:59.904Z,101435.52
2018-07-26T04:38:28.663Z,101433.21
2018-07-26T04:40:57.753Z,101432.25
2018-07-26T04:43:26.504Z,101427.98
2018-07-26T04:45:55.631Z,101432.80
2018-07-26T04:48:24.786Z,101435.19
2018-07-26T04:50:53.841Z,101429.22
2018-07-26T04:53:22.566Z,101431.41
2018-07-26T04:55:52.807Z,101430.69
2018-07-26T04:58:21.604Z,101434.09
2018-07-26T05:00:50.338Z,101433.58
2018-07-26T05:03:19.087Z,101426.27
2018-07-26T05:05:48.141Z,101435.78
2018-07-26T05:08:16.928Z,101434.81
2018-07-26T05:10:45.736Z,101432.93
2018-07-26T05:13:14.770Z,101428.09
2018-07-26T05:15:43.829Z,101434.11
2018-07-26T05:18:13.057Z,101435.43
2018-07-26T05:20:42.938Z,101427.66
2018-07-26T05:23:12.035Z,101428.52
2018-07-26T05:25:41.280Z,101435.95
2018-07-26T05:28:10.073Z,101437.82
2018-07-26T05:30:39.258Z,101440.15
2018-07-26T05:33:08.009Z,101440.64
2018-07-26T05:35:37.058Z,101445.95
2018-07-26T05:38:06.147Z,101448.27
2018-07-26T05:40:35.348Z,101441.29
2018-07-26T05:43:04.284Z,101438.64
2018-07-26T05:45:33.614Z,101446.85
2018-07-26T05:48:02.407Z,101447.56
2018-07-26T05:50:31.536Z,101450.95
2018-07-26T05:53:00.331Z,101450.13
2018-07-26T05:55:29.708Z,101454.59
2018-07-26T05:57:59.107Z,101450.20
2018-07-26T06:00:28.272Z,101449.08
2018-07-26T06:02:57.340Z,101448.05
2018-07-26T06:05:26.111Z,101450.22
2018-07-26T06:07:55.657Z,101444.28
2018-07-26T06:10:24.688Z,101448.14
2018-07-26T06:12:53.503Z,101447.32
2018-07-26T06:15:22.321Z,101448.47
2018-07-26T06:17:51.256Z,101447.27
2018-07-26T06:20:20.438Z,101451.38
2018-07-26T06:22:50.567Z,101448.41
2018-07-26T06:25:19.994Z,101452.67
2018-07-26T06:27:48.793Z,101458.21
2018-07-26T06:30:17.534Z,101455.77
2018-07-26T06:32:47.329Z,101453.97
2018-07-26T06:35:16.120Z,101453.08
2018-07-26T06:37:44.865Z,101456.77
2018-07-26T06:40:14.605Z,101452.20
2018-07-26T06:42:43.674Z,101456.27
2018-07-26T06:45:12.429Z,101455.98
2018-07-26T06:47:41.535Z,101453.31
2018-07-26T06:50:12.092Z,101451.86
2018-07-26T06:52:41.421Z,101446.97
2018-07-26T06:55:10.619Z,101449.84
2018-07-26T06:57:40.286Z,101449.92
2018-07-26T07:00:10.453Z,101448.22
2018-07-26T07:02:40.282Z,101451.03
2018-07-26T07:05:09.557Z,101447.90
2018-07-26T07:07:38.916Z,101445.36
2018-07-26T07:10:08.374Z,101448.34
2018-07-26T07:12:37.530Z,101443.39
2018-07-26T07:15:06.268Z,101439.98
2018-07-26T07:17:35.059Z,101442.34
2018-07-26T07:20:04.113Z,101443.16
2018-07-26T07:22:33.103Z,101441.74
2018-07-26T07:25:02.188Z,101446.66
2018-07-26T07:27:31.163Z,101448.38
2018-07-26T07:29:59.965Z,101452.69
2018-07-26T07:32:29.362Z,101445.05
2018-07-26T07:34:58.663Z,101447.59
2018-07-26T07:37:27.500Z,101453.25
2018-07-26T07:39:56.242Z,101453.34
2018-07-26T07:42:25.440Z,101447.03
2018-07-26T07:44:54.223Z,101445.33
2018-07-26T07:47:23.093Z,101439.84
2018-07-26T07:49:52.099Z,101445.52
2018-07-26T07:52:21.438Z,101444.13
2018-07-26T07:54:50.314Z,101437.97
2018-07-26T07:57:19.144Z,101444.73
2018-07-26T07:59:47.939Z,101440.96
2018-07-26T08:02:17.032Z,101450.02
2018-07-26T08:04:46.034Z,101448.42
2018-07-26T08:07:15.067Z,101450.02
2018-07-26T08:09:43.809Z,101437.25
2018-07-26T08:12:12.932Z,101440.44
2018-07-26T08:14:41.674Z,101441.05
2018-07-26T08:17:10.397Z,101442.39
2018-07-26T08:19:39.471Z,101442.66
2018-07-26T08:22:08.222Z,101443.49
2018-07-26T08:24:37.441Z,101439.40
2018-07-26T08:27:06.889Z,101441.98
2018-07-26T08:29:35.654Z,101440.94
2018-07-26T08:32:05.299Z,101436.15
2018-07-26T08:34:34.723Z,101432.95
2018-07-26T08:37:03.784Z,101431.34
2018-07-26T08:39:32.542Z,101440.27
2018-07-26T08:42:01.355Z,101439.03
2018-07-26T08:44:30.343Z,101438.27
2018-07-26T08:46:59.769Z,101440.72
2018-07-26T08:49:29.052Z,101436.77
2018-07-26T08:51:58.005Z,101437.05
2018-07-26T08:54:28.702Z,101436.25
2018-07-26T08:56:58.422Z,101435.98
2018-07-26T08:59:28.493Z,101433.38
2018-07-26T09:01:57.597Z,101435.92
2018-07-26T09:04:27.962Z,101436.03
2018-07-26T09:06:57.374Z,101435.45
2018-07-26T09:09:26.090Z,101435.21
2018-07-26T09:11:56.350Z,101435.88
2018-07-26T09:14:26.074Z,101436.00
2018-07-26T09:16:55.506Z,101434.77
2018-07-26T09:19:24.799Z,101427.69
2018-07-26T09:21:53.919Z,101438.52
2018-07-26T09:24:22.734Z,101428.59
2018-07-26T09:26:51.977Z,101428.44
2018-07-26T09:29:21.330Z,101429.02
2018-07-26T09:31:50.566Z,101418.60
2018-07-26T09:34:20.121Z,101417.99
2018-07-26T09:36:48.986Z,101412.02
2018-07-26T09:39:17.786Z,101416.99
2018-07-26T09:41:46.577Z,101414.16
2018-07-26T09:44:15.575Z,101407.60
2018-07-26T09:46:44.569Z,101412.23
2018-07-26T09:49:13.402Z,101412.13
2018-07-26T09:51:43.117Z,101410.24
2018-07-26T09:54:12.118Z,101412.41
2018-07-26T09:56:40.934Z,101405.44
2018-07-26T09:59:09.945Z,101404.80
2018-07-26T10:01:40.304Z,101400.58
2018-07-26T10:04:09.734Z,101405.16
2018-07-26T10:06:40.718Z,101395.38
2018-07-26T10:09:23.512Z,101396.09
2018-07-26T10:14:13.221Z,101395.73
2018-07-26T10:16:42.184Z,101387.08
2018-07-26T10:19:11.251Z,101390.28
2018-07-26T10:21:40.212Z,101399.53
2018-07-26T10:24:10.333Z,101395.98
2018-07-26T10:26:40.177Z,101392.39
2018-07-26T10:29:10.779Z,101394.94
2018-07-26T10:31:39.567Z,101390.85
2018-07-26T10:34:08.609Z,101391.98
2018-07-26T10:36:38.144Z,101390.86
2018-07-26T10:39:08.891Z,101387.53
2018-07-26T10:41:37.639Z,101376.95
2018-07-26T10:44:07.155Z,101386.67
2018-07-26T10:46:36.519Z,101377.86
2018-07-26T10:49:05.980Z,101369.20
2018-07-26T10:51:35.362Z,101374.26
2018-07-26T10:54:04.123Z,101374.41
2018-07-26T10:56:33.047Z,101382.63
2018-07-26T10:59:06.786Z,101370.27
2018-07-26T11:01:36.520Z,101365.77
2018-07-26T11:04:05.301Z,101369.28
2018-07-26T11:06:35.027Z,101369.45
2018-07-26T11:09:04.403Z,101366.77
2018-07-26T11:11:33.755Z,101361.52
2018-07-26T11:14:02.897Z,101368.56
2018-07-26T11:16:31.997Z,101357.54
2018-07-26T11:19:01.853Z,101350.04
2018-07-26T11:21:31.199Z,101363.06
2018-07-26T11:24:00.277Z,101367.79
2018-07-26T11:26:29.004Z,101365.40
2018-07-26T11:28:58.222Z,101350.64
2018-07-26T11:31:27.007Z,101353.29
2018-07-26T11:33:56.110Z,101353.89
2018-07-26T11:36:25.424Z,101347.23
2018-07-26T11:38:54.433Z,101350.00
2018-07-26T11:41:23.260Z,101349.72
2018-07-26T11:43:52.091Z,101349.08
2018-07-26T11:46:20.850Z,101350.20
2018-07-26T11:48:49.622Z,101347.70
2018-07-26T11:51:18.702Z,101342.61
2018-07-26T11:53:47.964Z,101342.03
2018-07-26T11:56:17.319Z,101337.59
2018-07-26T11:58:46.064Z,101339.89
2018-07-26T12:01:14.808Z,101332.04
2018-07-26T12:03:43.766Z,101336.16
2018-07-26T12:06:12.866Z,101336.55
2018-07-26T12:08:41.578Z,101336.36
2018-07-26T12:11:10.681Z,101330.83
2018-07-26T12:13:40.018Z,101330.00
2018-07-26T12:16:08.746Z,101328.86
2018-07-26T12:18:37.479Z,101333.11
2018-07-26T12:21:06.546Z,101329.38
2018-07-26T12:23:36.017Z,101323.87
2018-07-26T12:26:05.378Z,101320.52
2018-07-26T12:28:34.113Z,101319.69
2018-07-26T12:31:03.502Z,101315.81
2018-07-26T12:33:32.298Z,101321.52
2018-07-26T12:36:01.563Z,101311.41
2018-07-26T12:38:30.867Z,101317.92
2018-07-26T12:41:00.519Z,101317.52
2018-07-26T12:43:29.689Z,101310.05
2018-07-26T12:45:58.440Z,101308.02
2018-07-26T12:48:27.463Z,101297.44
2018-07-26T12:50:56.755Z,101300.23
2018-07-26T12:53:26.111Z,101299.31
2018-07-26T12:55:55.999Z,101291.94
2018-07-26T12:58:25.250Z,101296.12
2018-07-26T13:00:54.766Z,101299.00
2018-07-26T13:03:23.741Z,101297.08
2018-07-26T13:05:52.705Z,101286.69
2018-07-26T13:08:22.509Z,101286.59
2018-07-26T13:10:51.582Z,101287.49
2018-07-26T13:13:20.318Z,101278.07
2018-07-26T13:15:49.997Z,101285.89
2018-07-26T13:18:19.402Z,101286.74
2018-07-26T13:20:48.121Z,101282.57
2018-07-26T13:23:17.198Z,101283.84
2018-07-26T13:25:45.952Z,101274.83
2018-07-26T13:28:14.979Z,101276.59
2018-07-26T13:30:44.328Z,101281.13
2018-07-26T13:33:13.130Z,101275.97
2018-07-26T13:35:42.279Z,101275.02
2018-07-26T13:38:11.075Z,101268.72
2018-07-26T13:40:40.128Z,101270.64
2018-07-26T13:43:09.184Z,101271.17
2018-07-26T13:45:38.382Z,101274.31
2018-07-26T13:48:07.202Z,101271.45
2018-07-26T13:50:35.936Z,101274.45
2018-07-26T13:53:05.289Z,101271.31
2018-07-26T13:55:34.158Z,101264.50
2018-07-26T13:58:03.153Z,101263.72
2018-07-26T14:00:33.172Z,101265.28
2018-07-26T14:03:05.205Z,101262.95
2018-07-26T14:05:35.186Z,101259.35
2018-07-26T14:08:05.056Z,101253.50
2018-07-26T14:10:35.115Z,101258.47
2018-07-26T14:13:04.207Z,101257.41
2018-07-26T14:15:33.303Z,101255.49
2018-07-26T14:18:02.339Z,101252.12
2018-07-26T14:20:32.333Z,101250.41
2018-07-26T14:23:01.774Z,101245.47
2018-07-26T14:25:31.752Z,101238.49
2018-07-26T14:28:01.089Z,101236.80
2018-07-26T14:30:30.846Z,101240.71
2018-07-26T14:32:59.871Z,101244.17
2018-07-26T14:35:33.188Z,101235.74
2018-07-26T14:38:02.026Z,101241.36
2018-07-26T14:40:31.387Z,101241.47
2018-07-26T14:43:00.598Z,101241.98
2018-07-26T14:45:30.834Z,101232.87
2018-07-26T14:47:59.656Z,101235.80
2018-07-26T14:50:28.738Z,101229.33
2018-07-26T14:53:00.661Z,101225.97
2018-07-26T14:55:29.396Z,101223.99
2018-07-26T14:57:58.409Z,101219.92
2018-07-26T15:00:27.269Z,101215.23
2018-07-26T15:02:59.140Z,101217.33
2018-07-26T15:05:29.676Z,101211.50
2018-07-26T15:07:59.063Z,101213.09
2018-07-26T15:10:31.065Z,101218.27
2018-07-26T15:13:00.718Z,101212.53
2018-07-26T15:15:30.519Z,101213.13
2018-07-26T15:17:59.808Z,101213.32
2018-07-26T15:20:30.078Z,101216.58
2018-07-26T15:23:00.132Z,101204.33
2018-07-26T15:25:29.274Z,101209.38
2018-07-26T15:27:58.580Z,101208.27
2018-07-26T15:30:27.345Z,101214.42
2018-07-26T15:32:56.162Z,101211.36
2018-07-26T15:35:25.749Z,101216.80
2018-07-26T15:37:55.448Z,101216.03
2018-07-26T15:40:24.545Z,101202.02
2018-07-26T15:42:53.351Z,101199.16
2018-07-26T15:45:22.208Z,101206.30
2018-07-26T15:47:51.439Z,101210.20
2018-07-26T15:50:20.460Z,101199.97
2018-07-26T15:52:49.642Z,101201.38
2018-07-26T15:55:18.414Z,101191.55
2018-07-26T15:57:47.206Z,101197.03
2018-07-26T16:00:16.206Z,101199.66
2018-07-26T16:02:45.384Z,101195.25
2018-07-26T16:05:14.162Z,101197.88
2018-07-26T16:07:42.938Z,101198.17
2018-07-26T16:10:12.650Z,101196.50
2018-07-26T16:12:42.751Z,101194.77
2018-07-26T16:15:13.939Z,101192.62
2018-07-26T16:17:44.774Z,101191.28
2018-07-26T16:20:15.252Z,101183.81
2018-07-26T16:22:44.341Z,101183.16
2018-07-26T16:25:13.368Z,101191.40
2018-07-26T16:27:42.098Z,101193.09
2018-07-26T16:30:12.476Z,101176.57
2018-07-26T16:32:41.309Z,101182.94
2018-07-26T16:35:10.296Z,101175.73
2018-07-26T16:37:39.054Z,101186.65
2018-07-26T16:40:08.084Z,101178.27
2018-07-26T16:42:38.165Z,101177.07
2018-07-26T16:45:08.179Z,101181.66
2018-07-26T16:47:37.305Z,101167.19
2018-07-26T16:50:07.982Z,101170.60
2018-07-26T16:52:37.358Z,101176.18
2018-07-26T16:55:06.985Z,101176.55
2018-07-26T16:57:36.661Z,101170.94
2018-07-26T17:00:07.535Z,101169.34
2018-07-26T17:02:37.058Z,101166.10
2018-07-26T17:05:07.359Z,101163.73
2018-07-26T17:07:36.520Z,101171.38
2018-07-26T17:10:06.812Z,101162.59
2018-07-26T17:12:36.195Z,101165.27
2018-07-26T17:15:06.210Z,101162.77
2018-07-26T17:17:35.079Z,101163.09
2018-07-26T17:20:04.894Z,101164.83
2018-07-26T17:22:34.451Z,101170.81
2018-07-26T17:25:04.576Z,101170.54
2018-07-26T17:27:34.005Z,101171.28
2018-07-26T17:30:03.181Z,101170.55
2018-07-26T17:32:32.117Z,101169.61
2018-07-26T17:35:00.765Z,101170.91
2018-07-26T17:37:29.870Z,101171.23
2018-07-26T17:39:59.208Z,101171.72
2018-07-26T17:42:28.924Z,101167.03
2018-07-26T17:44:58.073Z,101172.59
2018-07-26T17:47:27.432Z,101174.80
2018-07-26T17:49:56.198Z,101171.52
2018-07-26T17:52:25.230Z,101169.98
2018-07-26T17:54:54.231Z,101169.84
2018-07-26T17:57:23.287Z,101171.41
2018-07-26T17:59:52.015Z,101175.64
2018-07-26T18:02:21.121Z,101178.64
2018-07-26T18:04:49.958Z,101173.61
2018-07-26T18:07:19.100Z,101174.55
2018-07-26T18:09:48.745Z,101178.17
2018-07-26T18:12:17.692Z,101177.55
2018-07-26T18:14:46.735Z,101186.61
2018-07-26T18:17:15.869Z,101184.25
2018-07-26T18:19:44.992Z,101179.84
2018-07-26T18:22:13.974Z,101186.87
2018-07-26T18:24:42.773Z,101181.55
2018-07-26T18:27:11.521Z,101185.59
2018-07-26T18:29:41.139Z,101185.56
2018-07-26T18:32:09.962Z,101190.67
2018-07-26T18:34:39.037Z,101199.13
2018-07-26T18:37:07.878Z,101198.80
2018-07-26T18:39:36.619Z,101196.58
2018-07-26T18:42:06.571Z,101195.30
2018-07-26T18:44:35.306Z,101199.62
2018-07-26T18:47:04.074Z,101205.80
2018-07-26T18:49:33.080Z,101196.63
2018-07-26T18:52:02.138Z,101200.91
2018-07-26T18:54:30.880Z,101202.80
2018-07-26T18:56:59.906Z,101203.48
2018-07-26T18:59:28.689Z,101213.78
2018-07-26T19:01:58.094Z,101216.84
2018-07-26T19:04:27.182Z,101217.59
2018-07-26T19:06:55.959Z,101221.81
2018-07-26T19:09:24.717Z,101220.66
2018-07-26T19:11:53.718Z,101226.34
2018-07-26T19:14:22.715Z,101227.14
2018-07-26T19:16:52.751Z,101225.33
2018-07-26T19:19:21.537Z,101224.46
2018-07-26T19:21:50.531Z,101230.65
2018-07-26T19:24:19.600Z,101227.88
2018-07-26T19:26:48.560Z,101234.80
2018-07-26T19:29:17.455Z,101243.44
2018-07-26T19:31:46.197Z,101239.19
2018-07-26T19:34:14.953Z,101250.14
2018-07-26T19:36:43.741Z,101247.88
2018-07-26T19:39:13.682Z,101251.20
2018-07-26T19:41:43.215Z,101256.03
2018-07-26T19:44:12.580Z,101256.08
2018-07-26T19:46:41.639Z,101247.75
2018-07-26T19:49:10.492Z,101256.05
2018-07-26T19:51:39.248Z,101252.33
2018-07-26T19:54:08.295Z,101257.17
2018-07-26T19:56:37.027Z,101262.91
2018-07-26T19:59:05.740Z,101259.84
2018-07-26T20:01:34.763Z,101260.46
2018-07-26T20:04:03.843Z,101259.08
2018-07-26T20:06:32.987Z,101267.52
2018-07-26T20:09:01.979Z,101262.71
2018-07-26T20:11:31.021Z,101263.78
2018-07-26T20:14:00.130Z,101260.19
2018-07-26T20:16:29.141Z,101265.78
2018-07-26T20:18:58.482Z,101268.92
2018-07-26T20:21:27.239Z,101266.83
2018-07-26T20:23:56.780Z,101269.05
2018-07-26T20:26:25.934Z,101270.02
2018-07-26T20:28:54.994Z,101271.13
2018-07-26T20:31:23.716Z,101270.86
2018-07-26T20:33:53.299Z,101269.20
2018-07-26T20:36:22.390Z,101271.38
2018-07-26T20:38:51.454Z,101272.30
2018-07-26T20:41:21.192Z,101267.91
2018-07-26T20:43:49.985Z,101269.12
2018-07-26T20:46:18.759Z,101272.16
2018-07-26T20:48:48.518Z,101275.97
2018-07-26T20:51:17.424Z,101266.99
2018-07-26T20:53:46.226Z,101279.13
2018-07-26T20:56:15.574Z,101276.64
2018-07-26T20:58:44.817Z,101272.30
2018-07-26T21:01:13.625Z,101271.92
2018-07-26T21:03:42.759Z,101269.73
2018-07-26T21:06:11.558Z,101265.47
2018-07-26T21:08:40.670Z,101266.05
2018-07-26T21:11:09.570Z,101274.73
2018-07-26T21:13:38.330Z,101270.69
2018-07-26T21:16:07.457Z,101270.84
2018-07-26T21:18:36.791Z,101270.45
2018-07-26T21:21:05.566Z,101270.31
2018-07-26T21:23:34.371Z,101277.78
2018-07-26T21:26:03.140Z,101273.45
2018-07-26T21:28:32.463Z,101273.38
2018-07-26T21:31:01.902Z,101278.41
2018-07-26T21:33:30.984Z,101277.67
2018-07-26T21:35:59.980Z,101282.95
2018-07-26T21:38:28.733Z,101279.23
2018-07-26T21:40:57.766Z,101280.91
2018-07-26T21:43:26.612Z,101278.86
2018-07-26T21:45:55.975Z,101281.27
2018-07-26T21:48:24.724Z,101292.72
2018-07-26T21:50:53.783Z,101294.55
2018-07-26T21:53:22.511Z,101291.41
2018-07-26T21:55:51.314Z,101291.05
2018-07-26T21:58:20.111Z,101290.28
2018-07-26T22:00:53.889Z,101293.57
2018-07-26T22:03:22.598Z,101294.39
2018-07-26T22:05:51.365Z,101296.25
2018-07-26T22:08:20.558Z,101296.67
2018-07-26T22:10:49.816Z,101299.11
2018-07-26T22:13:19.259Z,101308.91
2018-07-26T22:15:48.228Z,101297.55
2018-07-26T22:18:16.963Z,101303.75
2018-07-26T22:20:46.039Z,101306.16
2018-07-26T22:23:14.809Z,101303.59
2018-07-26T22:25:46.986Z,101305.22
2018-07-26T22:28:15.935Z,101303.08
2018-07-26T22:30:45.341Z,101303.92
2018-07-26T22:33:14.645Z,101313.73
2018-07-26T22:35:44.525Z,101312.04
2018-07-26T22:38:13.784Z,101317.94
2018-07-26T22:40:42.615Z,101314.26
2018-07-26T22:43:11.715Z,101303.02
2018-07-26T22:45:40.795Z,101303.69
2018-07-26T22:48:09.799Z,101307.98
2018-07-26T22:50:38.560Z,101304.45
2018-07-26T22:53:07.330Z,101304.65
2018-07-26T22:55:36.145Z,101301.13
2018-07-26T22:58:04.906Z,101308.95
2018-07-26T23:00:34.271Z,101307.43
2018-07-26T23:03:03.015Z,101315.59
2018-07-26T23:05:32.015Z,101313.70
2018-07-26T23:08:00.783Z,101323.45
2018-07-26T23:10:30.205Z,101325.48
2018-07-26T23:12:59.010Z,101317.56
2018-07-26T23:15:27.793Z,101316.39
2018-07-26T23:17:56.779Z,101324.77
2018-07-26T23:20:25.884Z,101320.84
2018-07-26T23:22:56.077Z,101321.45
2018-07-26T23:25:24.862Z,101325.63
2018-07-26T23:27:53.649Z,101322.07
2018-07-26T23:30:22.971Z,101317.48
2018-07-26T23:32:51.914Z,101307.55
2018-07-26T23:35:20.710Z,101315.73
2018-07-26T23:37:49.748Z,101317.15
2018-07-26T23:40:18.493Z,101312.60
2018-07-26T23:42:47.532Z,101308.84
2018-07-26T23:45:16.580Z,101319.59
2018-07-26T23:47:45.293Z,101316.39
2018-07-26T23:50:14.015Z,101317.83
2018-07-26T23:52:43.425Z,101320.41
2018-07-26T23:55:12.484Z,101320.41
2018-07-26T23:57:41.204Z,101319.43
